Time;durP1;ratioP1;P1;durP2;ratioP2;P2;SDS_P1;SDS_P2;PMS_P1;PMS_P2;Temp;Humidity;BMP_temperature;BMP_pressure;BME280_temperature;BME280_humidity;BME280_pressure;Samples;Min_cycle;Max_cycle;Signal;HPM_P1;HPM_P2
2022/07/22 00:02:16;;;;;;;19.90;14.05;;;;;;;15.23;100.00;97049.44;4957775;28;20042;-73
2022/07/22 00:04:41;;;;;;;18.60;13.52;;;;;;;15.19;100.00;97054.53;4975370;28;20037;-74
2022/07/22 00:07:07;;;;;;;18.00;13.38;;;;;;;15.14;100.00;97057.22;4975236;28;20093;-73
2022/07/22 00:09:33;;;;;;;23.40;14.10;;;;;;;15.13;100.00;97060.16;4973370;28;20458;-74
2022/07/22 00:11:59;;;;;;;23.60;14.35;;;;;;;15.16;100.00;97055.06;4976064;28;20125;-73
2022/07/22 00:14:24;;;;;;;20.88;15.50;;;;;;;15.20;100.00;97042.69;4974643;28;20576;-74
2022/07/22 00:16:50;;;;;;;28.75;16.75;;;;;;;15.21;100.00;97054.28;4974885;28;20201;-74
2022/07/22 00:19:15;;;;;;;23.75;15.20;;;;;;;15.19;100.00;97043.75;4956674;28;20173;-74
2022/07/22 00:21:41;;;;;;;23.48;16.15;;;;;;;15.12;100.00;97059.38;4974294;28;20128;-74
2022/07/22 00:24:09;;;;;;;23.08;15.00;;;;;;;15.10;100.00;97042.66;4973724;28;20065;-73
2022/07/22 00:26:35;;;;;;;26.17;17.42;;;;;;;15.17;100.00;97048.59;4973636;28;20378;-73
2022/07/22 00:29:00;;;;;;;28.48;18.13;;;;;;;15.17;100.00;97053.97;4959311;28;20108;-74
2022/07/22 00:31:28;;;;;;;26.25;18.05;;;;;;;15.12;100.00;97045.88;4943513;28;20533;-73
2022/07/22 00:33:53;;;;;;;25.75;17.48;;;;;;;15.10;100.00;97053.44;4975106;28;20038;-73
2022/07/22 00:36:19;;;;;;;27.70;17.10;;;;;;;15.08;100.00;97046.66;4972399;28;20324;-74
2022/07/22 00:38:44;;;;;;;26.08;17.00;;;;;;;15.04;100.00;97049.91;4957073;28;20740;-73
2022/07/22 00:41:09;;;;;;;27.85;17.10;;;;;;;15.07;100.00;97036.97;4974303;28;20141;-73
2022/07/22 00:44:02;;;;;;;23.08;16.40;;;;;;;14.96;100.00;97046.91;4973605;28;20046;-74
2022/07/22 00:46:29;;;;;;;27.63;17.08;;;;;;;14.98;100.00;97045.53;4964204;28;20038;-73
2022/07/22 00:48:55;;;;;;;31.98;19.30;;;;;;;14.98;100.00;97039.34;4980520;28;20084;-73
2022/07/22 00:51:22;;;;;;;27.98;17.20;;;;;;;15.00;100.00;97039.88;4982331;28;20042;-73
2022/07/22 00:53:49;;;;;;;24.95;17.10;;;;;;;15.00;100.00;97043.41;4966806;28;20100;-73
2022/07/22 00:56:15;;;;;;;29.63;18.38;;;;;;;15.01;100.00;97050.41;4963266;28;20418;-74
2022/07/22 00:58:43;;;;;;;26.88;17.58;;;;;;;15.04;100.00;97036.41;4963284;28;20137;-74
2022/07/22 01:01:09;;;;;;;25.70;15.93;;;;;;;15.05;100.00;97031.84;4948285;28;20050;-74
2022/07/22 01:03:35;;;;;;;27.58;18.00;;;;;;;15.04;100.00;97030.22;4980595;28;20034;-73
2022/07/22 01:06:01;;;;;;;32.22;19.95;;;;;;;15.04;100.00;97024.84;4980741;28;20555;-73
2022/07/22 01:08:27;;;;;;;25.65;18.40;;;;;;;15.04;100.00;97017.56;4979061;28;20093;-73
2022/07/22 01:10:52;;;;;;;27.40;18.23;;;;;;;15.10;100.00;97025.63;4963365;28;20043;-73
2022/07/22 01:13:18;;;;;;;25.55;17.13;;;;;;;15.04;100.00;97024.84;4979528;28;20420;-74
2022/07/22 01:15:44;;;;;;;31.75;19.35;;;;;;;15.02;100.00;97018.91;4946424;28;20098;-74
2022/07/22 01:18:10;;;;;;;28.75;17.75;;;;;;;15.06;100.00;97019.97;4963219;28;20394;-73
2022/07/22 01:20:36;;;;;;;31.00;17.90;;;;;;;15.05;100.00;97021.06;4962921;28;20592;-74
2022/07/22 01:23:02;;;;;;;35.40;19.58;;;;;;;15.04;100.00;97014.06;4980773;28;20109;-74
2022/07/22 01:25:28;;;;;;;31.90;20.58;;;;;;;15.03;100.00;97015.94;4946918;28;20092;-73
2022/07/22 01:27:53;;;;;;;34.75;20.20;;;;;;;15.03;100.00;97020.53;4965761;28;20385;-74
2022/07/22 01:30:19;;;;;;;31.75;20.02;;;;;;;15.05;100.00;97018.38;4961648;28;20038;-73
2022/07/22 01:32:44;;;;;;;34.33;19.70;;;;;;;15.01;100.00;97023.44;4949147;28;20038;-73
2022/07/22 01:35:10;;;;;;;28.13;16.38;;;;;;;15.02;100.00;97013.50;4964590;28;20030;-73
2022/07/22 01:37:36;;;;;;;29.27;16.20;;;;;;;15.05;100.00;97013.78;4961377;28;20560;-73
2022/07/22 01:40:03;;;;;;;30.52;18.50;;;;;;;15.01;100.00;97018.06;4964477;28;20104;-73
2022/07/22 01:42:29;;;;;;;24.92;13.75;;;;;;;14.93;100.00;97009.66;4964108;28;20041;-74
2022/07/22 01:44:55;;;;;;;23.15;14.15;;;;;;;14.88;100.00;97017.75;4938838;28;20288;-74
2022/07/22 01:47:21;;;;;;;21.35;12.20;;;;;;;14.85;100.00;97020.94;4980260;28;20093;-73
2022/07/22 01:49:47;;;;;;;24.08;13.15;;;;;;;14.83;100.00;97031.19;4963246;28;20037;-74
2022/07/22 01:52:13;;;;;;;23.95;13.32;;;;;;;14.86;100.00;97025.25;4962732;28;20026;-73
2022/07/22 01:54:40;;;;;;;30.20;14.38;;;;;;;14.76;100.00;97029.53;4964636;28;20127;-73
2022/07/22 01:57:06;;;;;;;22.83;13.32;;;;;;;14.84;100.00;97028.22;4962343;28;20150;-74
2022/07/22 01:59:31;;;;;;;23.85;13.30;;;;;;;14.75;100.00;97036.00;4960910;28;20038;-74
2022/07/22 02:01:59;;;;;;;22.08;13.10;;;;;;;14.81;100.00;97027.94;4960305;28;20452;-74
2022/07/22 02:04:24;;;;;;;23.17;13.30;;;;;;;14.87;100.00;97037.69;4961663;28;20124;-74
2022/07/22 02:06:50;;;;;;;24.05;12.98;;;;;;;14.94;100.00;97027.47;4963731;28;20042;-74
2022/07/22 02:09:15;;;;;;;21.95;11.82;;;;;;;14.99;100.00;97019.41;4962982;28;20035;-74
2022/07/22 02:11:48;;;;;;;21.98;12.10;;;;;;;15.05;100.00;97023.75;4977583;28;20030;-74
2022/07/22 02:14:15;;;;;;;18.70;11.73;;;;;;;14.99;100.00;97012.13;4961961;28;20042;-74
2022/07/22 02:16:41;;;;;;;17.65;11.35;;;;;;;15.00;100.00;97011.06;4962582;28;20429;-74
2022/07/22 02:19:10;;;;;;;22.88;12.63;;;;;;;14.98;100.00;97015.09;4958645;28;20042;-73
2022/07/22 02:21:35;;;;;;;23.42;13.27;;;;;;;15.06;100.00;97019.97;4960500;28;20046;-74
2022/07/22 02:24:01;;;;;;;21.60;11.73;;;;;;;15.09;100.00;97011.34;4975982;28;20119;-74
2022/07/22 02:26:26;;;;;;;20.75;11.23;;;;;;;15.00;100.00;97005.66;4958981;28;20057;-74
2022/07/22 02:28:55;;;;;;;19.08;11.73;;;;;;;15.00;100.00;96999.47;4977680;28;20060;-74
2022/07/22 02:31:21;;;;;;;21.88;12.35;;;;;;;15.00;100.00;96999.47;4947985;28;20030;-73
2022/07/22 02:33:47;;;;;;;20.17;12.65;;;;;;;15.05;100.00;97007.59;4961142;28;20493;-74
2022/07/22 02:36:13;;;;;;;19.58;11.75;;;;;;;15.10;100.00;96999.53;4959399;28;20034;-73
2022/07/22 02:38:39;;;;;;;23.20;11.80;;;;;;;15.08;100.00;97007.03;4959577;28;20454;-73
2022/07/22 02:41:07;;;;;;;18.95;11.70;;;;;;;15.09;100.00;97005.97;4976037;28;20174;-73
2022/07/22 02:43:37;;;;;;;19.00;12.13;;;;;;;15.05;100.00;96997.59;4951188;28;20585;-73
2022/07/22 02:46:03;;;;;;;19.15;11.23;;;;;;;15.09;100.00;97014.06;4975364;28;20125;-73
2022/07/22 02:48:29;;;;;;;19.13;12.32;;;;;;;15.05;100.00;97011.09;4958367;28;20501;-73
2022/07/22 02:50:55;;;;;;;25.50;13.25;;;;;;;15.05;100.00;97007.59;4961937;28;20034;-73
2022/07/22 02:53:23;;;;;;;21.02;13.05;;;;;;;15.05;100.00;97011.09;4953397;28;20073;-73
2022/07/22 02:55:50;;;;;;;19.25;12.45;;;;;;;15.00;100.00;97004.84;4960736;28;20057;-73
2022/07/22 02:58:16;;;;;;;26.63;13.20;;;;;;;14.98;100.00;97007.00;4950383;28;20042;-73
2022/07/22 03:00:43;;;;;;;20.60;12.95;;;;;;;14.94;100.00;97004.03;4963492;28;20038;-73
2022/07/22 03:03:09;;;;;;;21.83;13.70;;;;;;;14.98;100.00;97007.00;4958408;28;20104;-73
2022/07/22 03:05:34;;;;;;;23.92;12.93;;;;;;;14.99;100.00;97008.63;4958624;28;20108;-73
2022/07/22 03:08:20;;;;;;;25.27;15.00;;;;;;;14.99;100.00;97011.31;4974572;28;20112;-73
2022/07/22 03:10:48;;;;;;;23.73;14.05;;;;;;;14.95;100.00;97011.06;4958987;28;20049;-73
2022/07/22 03:13:14;;;;;;;22.13;12.90;;;;;;;15.01;100.00;97015.38;4958409;28;20499;-73
2022/07/22 03:15:39;;;;;;;23.48;13.45;;;;;;;15.07;100.00;97020.78;4974213;28;20046;-74
2022/07/22 03:18:05;;;;;;;26.48;13.63;;;;;;;14.95;100.00;97016.44;4958266;28;20049;-74
2022/07/22 03:20:30;;;;;;;26.05;13.57;;;;;;;14.93;100.00;97023.16;4959143;28;20515;-73
2022/07/22 03:22:56;;;;;;;27.92;14.70;;;;;;;14.66;100.00;97032.16;4959743;28;20034;-74
2022/07/22 03:25:22;;;;;;;25.02;14.50;;;;;;;14.68;100.00;97027.34;4943801;28;20030;-73
2022/07/22 03:27:47;;;;;;;24.73;13.18;;;;;;;14.63;100.00;97037.25;4959707;28;20069;-73
2022/07/22 03:30:13;;;;;;;25.45;14.30;;;;;;;14.71;100.00;97026.81;4958769;28;20497;-73
2022/07/22 03:32:44;;;;;;;31.17;15.25;;;;;;;14.79;100.00;97027.41;4958985;28;20096;-73
2022/07/22 03:35:11;;;;;;;25.17;14.85;;;;;;;14.86;100.00;97026.06;4957814;28;20168;-73
2022/07/22 03:37:41;;;;;;;33.33;16.00;;;;;;;14.83;100.00;97020.41;4964777;28;20563;-74
2022/07/22 03:40:07;;;;;;;27.73;15.07;;;;;;;14.91;100.00;97028.00;4954980;28;20054;-74
2022/07/22 03:42:33;;;;;;;26.38;15.48;;;;;;;14.97;100.00;97018.88;4953768;28;20034;-75
2022/07/22 03:44:59;;;;;;;29.77;14.85;;;;;;;14.91;100.00;97028.81;4954504;28;20042;-74
2022/07/22 03:47:24;;;;;;;32.05;16.70;;;;;;;14.82;100.00;97029.56;4938685;28;20038;-74
2022/07/22 03:49:51;;;;;;;33.65;17.48;;;;;;;14.54;100.00;97033.44;4972708;28;20314;-74
2022/07/22 03:52:24;;;;;;;29.92;15.63;;;;;;;14.59;100.00;97030.78;4953976;28;20506;-76
2022/07/22 03:54:50;;;;;;;31.60;17.45;;;;;;;14.67;100.00;97028.41;4957092;28;20594;-73
2022/07/22 03:57:16;;;;;;;32.38;16.30;;;;;;;14.75;100.00;97029.78;4952190;28;20137;-73
2022/07/22 03:59:44;;;;;;;30.00;16.48;;;;;;;14.83;100.00;97031.19;4956451;28;20851;-73
2022/07/22 04:02:09;;;;;;;33.20;17.73;;;;;;;14.86;100.00;97028.75;4953516;28;20049;-74
2022/07/22 04:04:35;;;;;;;27.98;17.50;;;;;;;14.77;100.00;97028.44;4942228;28;20337;-73
2022/07/22 04:07:01;;;;;;;33.50;17.08;;;;;;;14.86;100.00;97036.03;4955501;28;20035;-74
2022/07/22 04:09:33;;;;;;;28.67;16.33;;;;;;;14.91;100.00;97036.06;4954486;28;20336;-73
2022/07/22 04:11:58;;;;;;;33.63;17.95;;;;;;;14.91;100.00;97028.00;4953655;28;20402;-74
2022/07/22 04:14:25;;;;;;;30.63;17.23;;;;;;;14.86;100.00;97028.75;4955331;28;20359;-73
2022/07/22 04:16:51;;;;;;;32.60;16.85;;;;;;;14.84;100.00;97033.63;4955731;28;20352;-73
2022/07/22 04:19:17;;;;;;;35.05;17.90;;;;;;;14.86;100.00;97023.38;4953257;28;20509;-73
2022/07/22 04:21:55;;;;;;;34.53;18.23;;;;;;;14.86;100.00;97030.66;4952261;28;20046;-73
2022/07/22 04:24:24;;;;;;;37.08;18.48;;;;;;;14.87;100.00;97026.91;4953483;28;20494;-74
2022/07/22 04:26:50;;;;;;;34.75;17.88;;;;;;;14.92;100.00;97029.59;4951939;28;20081;-74
2022/07/22 04:29:16;;;;;;;31.80;15.95;;;;;;;14.90;100.00;97021.78;4951853;28;20273;-74
2022/07/22 04:31:41;;;;;;;43.17;18.63;;;;;;;14.87;100.00;97016.94;4954469;28;20051;-74
2022/07/22 04:34:12;;;;;;;32.53;16.40;;;;;;;14.87;100.00;97022.34;4952562;28;20100;-74
2022/07/22 04:36:40;;;;;;;32.75;17.88;;;;;;;14.92;100.00;97025.03;4954374;28;20556;-74
2022/07/22 04:39:05;;;;;;;32.67;18.13;;;;;;;14.99;100.00;97022.09;4952143;28;20727;-74
2022/07/22 04:41:31;;;;;;;37.33;17.52;;;;;;;15.05;100.00;97019.16;4951520;28;20153;-74
2022/07/22 04:43:58;;;;;;;34.30;16.88;;;;;;;15.11;100.00;97028.09;4949870;28;20038;-74
2022/07/22 04:46:26;;;;;;;32.63;18.00;;;;;;;15.11;100.00;97011.13;4951727;28;20160;-74
2022/07/22 04:48:54;;;;;;;37.13;18.65;;;;;;;15.01;100.00;97004.59;4954212;28;20405;-74
2022/07/22 04:51:19;;;;;;;35.60;19.65;;;;;;;15.09;100.00;97016.75;4952629;28;20497;-74
2022/07/22 04:53:47;;;;;;;35.00;18.42;;;;;;;15.15;100.00;97017.59;4949290;28;20517;-74
2022/07/22 04:56:14;;;;;;;36.83;18.23;;;;;;;15.19;100.00;97014.13;4952079;28;20039;-74
2022/07/22 04:58:40;;;;;;;33.40;17.67;;;;;;;15.23;100.00;97017.06;4953201;28;20086;-73
2022/07/22 05:01:05;;;;;;;35.63;18.85;;;;;;;15.24;100.00;97016.81;4952138;28;20046;-74
2022/07/22 05:03:31;;;;;;;33.75;18.48;;;;;;;15.22;100.00;97021.66;4953868;28;20145;-73
2022/07/22 05:05:58;;;;;;;37.65;19.65;;;;;;;15.27;100.00;97013.59;4952039;28;20043;-73
2022/07/22 05:08:30;;;;;;;34.60;19.20;;;;;;;15.32;100.00;97007.41;4953142;28;20079;-73
2022/07/22 05:10:58;;;;;;;31.95;17.75;;;;;;;15.44;100.00;97005.28;4953538;28;20085;-74
2022/07/22 05:13:24;;;;;;;40.70;19.58;;;;;;;15.54;100.00;97005.28;4973315;28;20049;-74
2022/07/22 05:15:50;;;;;;;35.50;18.23;;;;;;;15.53;100.00;97008.25;4967589;28;20035;-74
2022/07/22 05:18:16;;;;;;;32.60;18.52;;;;;;;15.55;100.00;97012.31;4965965;28;20255;-74
2022/07/22 05:20:43;;;;;;;33.35;17.17;;;;;;;15.64;100.00;97015.34;4953477;28;20529;-73
2022/07/22 05:23:09;;;;;;;35.95;18.67;;;;;;;15.71;100.00;97013.19;4951268;28;20050;-73
2022/07/22 05:25:37;;;;;;;33.10;17.55;;;;;;;15.80;100.00;97011.59;4946243;28;20269;-74
2022/07/22 05:28:05;;;;;;;33.50;17.48;;;;;;;15.81;100.00;97020.50;4954517;28;20042;-74
2022/07/22 05:30:33;;;;;;;32.45;17.63;;;;;;;15.75;100.00;97014.28;4945937;28;20515;-74
2022/07/22 05:33:01;;;;;;;31.48;16.17;;;;;;;15.64;100.00;97009.94;4950289;28;20034;-74
2022/07/22 05:35:46;;;;;;;33.95;17.98;;;;;;;15.59;100.00;97018.00;4956773;28;20065;-74
2022/07/22 05:38:13;;;;;;;30.83;17.65;;;;;;;15.61;100.00;97021.25;4969650;28;20340;-73
2022/07/22 05:40:38;;;;;;;32.13;18.05;;;;;;;15.64;100.00;97020.75;4946251;28;20090;-73
2022/07/22 05:43:04;;;;;;;36.70;17.05;;;;;;;15.75;100.00;97019.66;4938003;28;20047;-73
2022/07/22 05:45:30;;;;;;;28.95;16.17;;;;;;;15.82;100.00;97022.13;4938409;28;20054;-73
2022/07/22 05:47:55;;;;;;;28.92;16.35;;;;;;;15.91;100.00;97025.09;4920877;29;20086;-75
2022/07/22 05:50:21;;;;;;;30.98;15.63;;;;;;;16.05;100.00;97012.69;4936707;28;20054;-73
2022/07/22 05:52:47;;;;;;;24.55;13.90;;;;;;;16.11;100.00;97011.63;4937038;28;20512;-73
2022/07/22 05:55:12;;;;;;;22.08;13.40;;;;;;;16.13;100.00;97009.44;4952432;28;20066;-74
2022/07/22 05:57:41;;;;;;;24.08;12.90;;;;;;;16.18;100.00;97009.44;4937877;29;20044;-74
2022/07/22 06:00:07;;;;;;;25.70;13.45;;;;;;;16.31;100.00;97005.38;4936964;28;20036;-74
2022/07/22 06:02:39;;;;;;;24.80;13.40;;;;;;;16.33;100.00;97014.81;4934886;28;20039;-74
2022/07/22 06:05:06;;;;;;;24.92;13.75;;;;;;;16.37;100.00;97007.81;4933364;28;20090;-74
2022/07/22 06:07:32;;;;;;;23.67;14.02;;;;;;;16.58;100.00;96999.69;4952739;28;20043;-73
2022/07/22 06:10:00;;;;;;;23.58;13.40;;;;;;;16.81;100.00;96996.41;4951953;28;20098;-73
2022/07/22 06:12:29;;;;;;;23.38;12.93;;;;;;;16.95;100.00;97002.81;4937325;28;20430;-73
2022/07/22 06:14:55;;;;;;;20.25;12.10;;;;;;;16.98;100.00;96993.38;4936859;28;20043;-73
2022/07/22 06:17:21;;;;;;;22.42;13.27;;;;;;;17.01;100.00;96987.41;4936675;29;20113;-73
2022/07/22 06:19:46;;;;;;;20.40;10.98;;;;;;;16.98;100.00;96983.38;4952885;28;20047;-73
2022/07/22 06:22:12;;;;;;;19.63;11.02;;;;;;;16.90;100.00;96983.13;4935231;28;20042;-73
2022/07/22 06:24:37;;;;;;;20.02;11.45;;;;;;;16.91;100.00;96979.34;4940084;28;20309;-73
2022/07/22 06:27:03;;;;;;;21.23;11.50;;;;;;;16.72;100.00;96979.13;4939184;28;20250;-73
2022/07/22 06:29:29;;;;;;;19.02;11.05;;;;;;;16.50;100.00;96981.31;4935935;28;20581;-71
2022/07/22 06:31:55;;;;;;;16.50;10.18;;;;;;;16.60;100.00;96984.00;4938927;28;20443;-73
2022/07/22 06:34:21;;;;;;;16.90;9.73;;;;;;;16.78;100.00;96980.72;4935924;28;20345;-73
2022/07/22 06:37:04;;;;;;;18.90;9.60;;;;;;;17.06;100.00;96989.28;4931958;28;20054;-73
2022/07/22 06:39:30;;;;;;;18.15;9.68;;;;;;;17.20;100.00;96990.31;4943022;28;20050;-73
2022/07/22 06:42:10;;;;;;;17.85;9.20;;;;;;;17.25;100.00;96991.06;4958964;28;20049;-73
2022/07/22 06:45:11;;;;;;;16.77;9.73;;;;;;;17.36;100.00;96983.75;4897994;29;20108;-73
2022/07/22 06:47:39;;;;;;;17.05;9.05;;;;;;;17.50;100.00;96992.81;4962745;28;20046;-73
2022/07/22 06:50:09;;;;;;;16.33;10.25;;;;;;;17.58;100.00;96993.31;4958581;28;20137;-73
2022/07/22 06:52:39;;;;;;;19.42;10.68;;;;;;;17.70;100.00;96996.50;4975997;28;20442;-73
2022/07/22 06:55:06;;;;;;;15.70;9.20;;;;;;;17.85;100.00;96985.63;4959031;28;20050;-73
2022/07/22 06:57:35;;;;;;;14.85;8.68;;;;;;;18.14;100.00;96987.56;4975923;28;20077;-73
2022/07/22 07:00:01;;;;;;;17.10;9.50;;;;;;;18.16;100.00;96988.88;4960298;28;20150;-73
2022/07/22 07:02:28;;;;;;;13.70;8.50;;;;;;;18.29;100.00;96993.66;4958915;28;20081;-73
2022/07/22 07:04:53;;;;;;;13.25;8.35;;;;;;;18.42;100.00;96989.44;4960065;28;20490;-73
2022/07/22 07:07:19;;;;;;;13.10;8.10;;;;;;;18.51;100.00;96985.03;4974378;28;20464;-73
2022/07/22 07:09:54;;;;;;;13.80;8.30;;;;;;;18.59;100.00;96991.72;4958218;28;20046;-73
2022/07/22 07:12:38;;;;;;;14.90;8.10;;;;;;;18.65;100.00;96979.75;4973741;28;20073;-73
2022/07/22 07:15:07;;;;;;;11.23;7.88;;;;;;;18.73;100.00;96983.75;4975485;28;20050;-73
2022/07/22 07:17:32;;;;;;;13.32;7.57;;;;;;;18.77;100.00;96992.94;4942686;28;20038;-73
2022/07/22 07:19:59;;;;;;;10.63;6.57;;;;;;;18.70;100.00;96981.63;4943088;28;20046;-73
2022/07/22 07:22:25;;;;;;;13.63;7.85;;;;;;;18.64;100.00;96978.13;4957135;28;20034;-73
2022/07/22 07:24:51;;;;;;;14.40;7.78;;;;;;;18.63;100.00;96985.44;4958161;28;20044;-73
2022/07/22 07:27:17;;;;;;;16.27;7.40;;;;;;;18.75;100.00;96978.84;4958057;28;20120;-73
2022/07/22 07:29:45;;;;;;;13.68;7.40;;;;;;;18.84;100.00;96971.72;4957472;28;20042;-73
2022/07/22 07:32:12;;;;;;;10.68;6.93;;;;;;;19.07;100.00;96965.47;4974481;28;20392;-73
2022/07/22 07:34:38;;;;;;;11.85;6.85;;;;;;;19.28;100.00;96966.00;4949525;28;20073;-74
2022/07/22 07:37:04;;;;;;;11.55;6.53;;;;;;;19.05;100.00;96959.50;4975684;28;20034;-73
2022/07/22 07:39:29;;;;;;;11.43;6.65;;;;;;;19.17;100.00;96957.19;4951239;28;20050;-73
2022/07/22 07:41:55;;;;;;;10.90;6.30;;;;;;;19.35;100.00;96954.78;4956325;28;20046;-73
2022/07/22 07:44:21;;;;;;;12.25;6.50;;;;;;;19.43;100.00;96957.66;4955451;28;20569;-73
2022/07/22 07:46:47;;;;;;;10.05;6.32;;;;;;;19.58;100.00;96953.13;4971096;28;20030;-73
2022/07/22 07:49:13;;;;;;;10.55;6.68;;;;;;;19.44;100.00;96953.84;4946053;28;20409;-73
2022/07/22 07:51:39;;;;;;;9.73;6.20;;;;;;;19.52;100.00;96955.06;4957119;28;20058;-73
2022/07/22 07:54:04;;;;;;;12.15;6.25;;;;;;;19.56;100.00;96945.25;4973786;28;20053;-74
2022/07/22 07:56:30;;;;;;;12.93;6.25;;;;;;;19.65;100.00;96950.88;4972465;28;20042;-73
2022/07/22 07:58:56;;;;;;;11.40;6.43;;;;;;;19.78;100.00;96952.84;4958168;28;20136;-73
2022/07/22 08:01:22;;;;;;;9.55;6.13;;;;;;;19.48;100.00;96954.06;4957732;28;20049;-73
2022/07/22 08:03:48;;;;;;;9.15;5.72;;;;;;;19.78;100.00;96952.84;4958514;28;20038;-74
2022/07/22 08:06:14;;;;;;;10.60;5.68;;;;;;;20.01;100.00;96946.50;4976999;28;20042;-73
2022/07/22 08:08:40;;;;;;;12.85;5.43;;;;;;;20.26;100.00;96953.41;4959062;28;20165;-74
2022/07/22 08:11:14;;;;;;;9.32;5.45;;;;;;;20.29;100.00;96949.25;4958063;28;20245;-73
2022/07/22 08:13:53;;;;;;;11.65;5.82;;;;;;;20.18;100.00;96948.66;4958065;28;20046;-74
2022/07/22 08:16:56;;;;;;;9.85;5.75;;;;;;;20.47;100.00;96948.44;4964681;28;20527;-74
2022/07/22 08:19:22;;;;;;;10.07;5.63;;;;;;;20.56;100.00;96949.34;4956355;28;20035;-74
2022/07/22 08:21:48;;;;;;;9.20;6.05;;;;;;;20.59;100.00;96950.66;4958358;28;20034;-73
2022/07/22 08:24:25;;;;;;;8.60;5.63;;;;;;;19.93;100.00;96947.16;4957097;28;20255;-73
2022/07/22 08:26:51;;;;;;;9.13;5.65;;;;;;;20.05;100.00;96952.13;4961475;28;20781;-73
2022/07/22 08:29:16;;;;;;;9.23;5.40;;;;;;;20.47;100.00;96944.91;4954446;28;20030;-74
2022/07/22 08:31:42;;;;;;;8.80;5.60;;;;;;;20.43;100.00;96941.94;4958891;28;20045;-74
2022/07/22 08:34:10;;;;;;;10.35;5.70;;;;;;;20.38;100.00;96943.94;4958572;28;20129;-73
2022/07/22 08:36:36;;;;;;;11.63;5.20;;;;;;;19.75;100.00;96946.06;4943152;28;20390;-73
2022/07/22 08:39:03;;;;;;;7.40;4.50;;;;;;;19.59;100.00;96935.75;4950642;28;20046;-73
2022/07/22 08:41:35;;;;;;;7.13;4.47;;;;;;;19.76;100.00;96931.38;4950132;28;20043;-73
2022/07/22 08:44:01;;;;;;;10.23;5.00;;;;;;;19.63;100.00;96934.88;4958840;28;20046;-73
2022/07/22 08:46:27;;;;;;;8.48;5.18;;;;;;;19.89;100.00;96942.63;4975594;28;20034;-73
2022/07/22 08:49:16;;;;;;;8.48;5.00;;;;;;;20.18;100.00;96936.97;4971996;28;20477;-73
2022/07/22 08:52:14;;;;;;;8.88;5.63;;;;;;;20.41;100.00;96927.06;4956233;28;20066;-73
2022/07/22 08:54:45;;;;;;;11.13;5.15;;;;;;;20.71;100.00;96929.22;4960235;28;20046;-73
2022/07/22 08:57:13;;;;;;;7.68;4.68;;;;;;;20.96;100.00;96927.09;4957391;28;20157;-73
2022/07/22 08:59:53;;;;;;;8.18;5.00;;;;;;;21.19;100.00;96936.13;4958586;28;20045;-74
2022/07/22 09:02:20;;;;;;;8.27;4.57;;;;;;;20.97;100.00;96928.69;4961760;28;20042;-73
2022/07/22 09:04:53;;;;;;;9.27;5.47;;;;;;;20.53;100.00;96932.81;4941769;28;20038;-74
2022/07/22 09:07:31;;;;;;;9.13;5.00;;;;;;;20.50;100.00;96936.16;4958306;28;20046;-73
2022/07/22 09:10:10;;;;;;;8.55;4.72;;;;;;;20.52;100.00;96934.72;4959831;28;20062;-74
2022/07/22 09:12:58;;;;;;;11.02;5.22;;;;;;;20.66;100.00;96933.94;4979692;28;20038;-73
2022/07/22 09:15:52;;;;;;;9.65;5.15;;;;;;;20.78;100.00;96926.91;4963152;28;20038;-74
2022/07/22 09:18:49;;;;;;;9.20;5.07;;;;;;;20.80;100.00;96934.75;4979438;28;20514;-74
2022/07/22 09:21:43;;;;;;;8.77;5.03;;;;;;;20.67;100.00;96930.91;4960877;28;20038;-74
2022/07/22 09:24:29;;;;;;;8.40;5.25;;;;;;;20.58;100.00;96933.53;4959649;28;20066;-74
2022/07/22 09:27:27;;;;;;;8.27;5.40;;;;;;;20.56;100.00;96938.47;4969259;28;20034;-74
2022/07/22 09:30:14;;;;;;;7.20;4.97;;;;;;;20.36;100.00;96938.00;4979317;28;20062;-74
2022/07/22 09:32:48;;;;;;;8.80;5.10;;;;;;;20.30;100.00;96931.84;4980174;28;20078;-74
2022/07/22 09:35:32;;;;;;;9.27;5.22;;;;;;;20.49;100.00;96934.53;4979769;28;20096;-74
2022/07/22 09:38:05;;;;;;;13.02;4.90;;;;;;;20.68;100.00;96937.97;4953413;28;20077;-74
2022/07/22 09:40:37;;;;;;;11.13;5.15;;;;;;;20.91;100.00;96936.16;4962954;28;20485;-73
2022/07/22 09:43:11;;;;;;;6.97;4.82;;;;;;;20.79;100.00;96931.25;4962330;28;20520;-74
2022/07/22 09:45:44;;;;;;;8.32;5.07;;;;;;;20.79;100.00;96933.97;4948110;28;20385;-74
2022/07/22 09:48:11;;;;;;;7.78;4.70;;;;;;;21.15;100.00;96933.22;4977493;28;20039;-74
2022/07/22 09:50:51;;;;;;;7.55;5.00;;;;;;;21.14;100.00;96931.59;4961121;28;20390;-74
2022/07/22 09:53:41;;;;;;;7.45;4.85;;;;;;;21.07;100.00;96929.28;4942673;28;20056;-74
2022/07/22 09:56:14;;;;;;;7.97;4.50;;;;;;;21.14;100.00;96931.59;4976868;28;20047;-74
2022/07/22 09:58:41;;;;;;;7.65;5.18;;;;;;;21.24;100.00;96928.66;4961423;28;20046;-74
2022/07/22 10:01:14;;;;;;;7.93;5.35;;;;;;;21.27;100.00;96925.38;4963269;28;20038;-74
2022/07/22 10:03:44;;;;;;;7.53;5.00;;;;;;;21.33;100.00;96915.97;4956994;28;20046;-74
2022/07/22 10:06:10;;;;;;;8.30;4.80;;;;;;;21.35;100.00;96913.75;4972133;28;20065;-74
2022/07/22 10:08:36;;;;;;;8.00;4.90;;;;;;;21.46;100.00;96918.97;4977667;28;20458;-74
2022/07/22 10:11:05;;;;;;;8.32;5.00;;;;;;;21.44;100.00;96918.47;4960384;28;20497;-74
2022/07/22 10:13:32;;;;;;;8.57;4.47;;;;;;;21.82;100.00;96911.56;4959705;28;20498;-74
2022/07/22 10:15:59;;;;;;;9.23;5.15;;;;;;;22.00;100.00;96912.47;4959234;28;20042;-75
2022/07/22 10:18:28;;;;;;;10.13;5.10;;;;;;;22.05;100.00;96909.63;4956299;28;20111;-74
2022/07/22 10:21:09;;;;;;;7.63;4.80;;;;;;;22.09;100.00;96904.38;4960634;28;20129;-74
2022/07/22 10:23:36;;;;;;;8.93;3.97;;;;;;;22.40;100.00;96902.47;4958007;28;20081;-74
2022/07/22 10:26:04;;;;;;;8.40;3.67;;;;;;;22.62;100.00;96898.06;4959958;28;20509;-74
2022/07/22 10:28:37;;;;;;;8.27;4.72;;;;;;;22.47;100.00;96902.81;4975651;28;20537;-74
2022/07/22 10:31:22;;;;;;;8.95;4.40;;;;;;;22.59;100.00;96901.44;4975219;28;20572;-74
2022/07/22 10:33:51;;;;;;;7.78;4.13;;;;;;;22.70;100.00;96894.56;4976566;28;20504;-74
2022/07/22 10:36:31;;;;;;;8.65;4.43;;;;;;;23.04;100.00;96891.19;4958802;28;20097;-74
2022/07/22 10:39:07;;;;;;;9.05;4.38;;;;;;;22.96;100.00;96890.03;4975258;28;20056;-74
2022/07/22 10:41:41;;;;;;;6.13;4.57;;;;;;;23.29;100.00;96886.88;4975230;28;20046;-74
2022/07/22 10:44:07;;;;;;;6.43;4.22;;;;;;;23.68;100.00;96890.63;4958082;28;20049;-76
2022/07/22 10:46:50;;;;;;;7.05;4.22;;;;;;;23.73;100.00;96882.22;4975666;28;20109;-74
2022/07/22 10:49:25;;;;;;;9.25;4.10;;;;;;;23.81;98.35;96886.88;4975892;28;20042;-74
2022/07/22 10:52:16;;;;;;;6.25;4.28;;;;;;;24.17;97.29;96879.09;4977282;28;20042;-74
2022/07/22 10:55:19;;;;;;;7.80;4.45;;;;;;;24.41;94.64;96883.25;4977622;28;20498;-74
2022/07/22 10:57:45;;;;;;;8.00;4.68;;;;;;;24.60;91.95;96875.44;4980322;28;20525;-74
2022/07/22 11:00:11;;;;;;;7.03;4.68;;;;;;;24.58;94.87;96874.16;4977717;28;20042;-74
2022/07/22 11:02:38;;;;;;;11.38;4.35;;;;;;;25.01;92.89;96874.75;4977635;28;20376;-74
2022/07/22 11:05:04;;;;;;;6.95;4.35;;;;;;;25.13;91.75;96870.50;4976419;28;20470;-74
2022/07/22 11:07:31;;;;;;;9.18;3.85;;;;;;;25.22;89.69;96868.53;4978154;28;20046;-74
2022/07/22 11:10:09;;;;;;;7.45;4.32;;;;;;;25.93;85.65;96870.38;4978234;28;20500;-74
2022/07/22 11:12:35;;;;;;;6.60;3.67;;;;;;;26.17;87.50;96872.38;4978295;28;20188;-73
2022/07/22 11:15:01;;;;;;;6.30;3.90;;;;;;;26.68;85.27;96873.72;4286531;28;10001140;-74
2022/07/22 11:17:27;;;;;;;6.93;3.97;;;;;;;26.88;82.99;96861.84;4976268;28;20584;-74
2022/07/22 11:19:53;;;;;;;7.63;4.40;;;;;;;27.27;79.43;96856.78;4954898;28;20047;-74
2022/07/22 11:22:18;;;;;;;8.68;4.18;;;;;;;28.16;76.25;96853.78;4973040;28;20042;-74
2022/07/22 11:24:48;;;;;;;6.32;4.20;;;;;;;29.21;64.94;96856.00;4975280;28;20062;-74